Time;durP1;ratioP1;P1;durP2;ratioP2;P2;SDS_P1;SDS_P2;PMS_P1;PMS_P2;Temp;Humidity;BMP_temperature;BMP_pressure;BME280_temperature;BME280_humidity;BME280_pressure;Samples;Min_cycle;Max_cycle;Signal;HPM_P1;HPM_P2
2022/05/20 00:01:56;;;;;;;;;;;11.90;99.90;;;;;;5103328;28;19969;-67
2022/05/20 00:04:22;;;;;;;;;;;11.90;99.90;;;;;;5092175;28;19920;-67
2022/05/20 00:06:47;;;;;;;;;;;11.80;99.90;;;;;;5092394;28;20286;-67
2022/05/20 00:09:13;;;;;;;;;;;11.80;99.90;;;;;;5094377;28;19920;-67
2022/05/20 00:11:38;;;;;;;;;;;11.80;99.90;;;;;;5095829;28;19920;-67
2022/05/20 00:14:05;;;;;;;;;;;11.80;99.90;;;;;;5091907;28;19920;-67
2022/05/20 00:16:31;;;;;;;;;;;11.80;99.90;;;;;;5123815;27;19927;-67
2022/05/20 00:18:56;;;;;;;;;;;11.70;99.90;;;;;;5097826;28;19924;-67
2022/05/20 00:21:22;;;;;;;;;;;11.80;99.90;;;;;;5076912;28;19930;-67
2022/05/20 00:23:47;;;;;;;;;;;11.90;99.90;;;;;;5104601;27;19927;-67
2022/05/20 00:26:12;;;;;;;;;;;11.80;99.90;;;;;;5080560;28;19921;-67
2022/05/20 00:29:01;;;;;;;;;;;12.00;99.90;;;;;;5088021;28;19929;-67
2022/05/20 00:31:26;;;;;;;;;;;12.10;99.90;;;;;;5104861;28;19920;-67
2022/05/20 00:33:52;;;;;;;;;;;12.00;99.90;;;;;;5115822;27;19994;-67
2022/05/20 00:36:18;;;;;;;;;;;12.20;99.90;;;;;;5117772;27;19935;-67
2022/05/20 00:38:44;;;;;;;;;;;12.10;99.90;;;;;;5109660;28;20032;-67
2022/05/20 00:41:10;;;;;;;;;;;12.30;99.90;;;;;;5111548;28;19920;-67
2022/05/20 00:43:40;;;;;;;;;;;12.20;99.90;;;;;;5103385;28;19924;-67
2022/05/20 00:46:07;;;;;;;;;;;12.10;99.90;;;;;;5105908;28;19934;-67
2022/05/20 00:48:32;;;;;;;;;;;12.20;99.90;;;;;;5086726;28;19920;-67
2022/05/20 00:51:03;;;;;;;;;;;12.10;99.90;;;;;;5090064;28;19924;-67
2022/05/20 00:53:32;;;;;;;;;;;12.10;99.90;;;;;;5089182;28;19920;-67
2022/05/20 00:55:58;;;;;;;;;;;12.20;99.90;;;;;;5091073;28;19928;-67
2022/05/20 00:58:25;;;;;;;;;;;12.10;99.90;;;;;;5091683;28;19931;-67
2022/05/20 01:00:52;;;;;;;;;;;12.10;99.90;;;;;;5095963;28;19920;-67
2022/05/20 01:03:19;;;;;;;;;;;12.10;99.90;;;;;;5100051;28;19924;-67
2022/05/20 01:05:48;;;;;;;;;;;12.00;99.90;;;;;;5090394;28;19924;-67
2022/05/20 01:08:16;;;;;;;;;;;12.00;99.90;;;;;;5097354;28;19920;-67
2022/05/20 01:10:41;;;;;;;;;;;12.10;99.90;;;;;;5089502;28;19924;-67
2022/05/20 01:13:07;;;;;;;;;;;12.10;99.90;;;;;;5084714;28;20020;-67
2022/05/20 01:15:33;;;;;;;;;;;12.10;99.90;;;;;;5091030;28;19919;-68
2022/05/20 01:17:58;;;;;;;;;;;12.20;99.90;;;;;;5111781;28;19923;-67
2022/05/20 01:20:32;;;;;;;;;;;12.10;99.90;;;;;;5109523;28;19926;-67
2022/05/20 01:23:04;;;;;;;;;;;12.00;99.90;;;;;;5075099;28;19920;-67
2022/05/20 01:25:30;;;;;;;;;;;12.10;99.90;;;;;;5091819;28;19920;-67
2022/05/20 01:27:55;;;;;;;;;;;12.00;99.90;;;;;;5091752;28;20020;-67
2022/05/20 01:30:22;;;;;;;;;;;12.00;99.90;;;;;;5092017;28;20057;-67
2022/05/20 01:32:48;;;;;;;;;;;12.10;99.90;;;;;;5092054;28;19998;-67
2022/05/20 01:35:19;;;;;;;;;;;12.00;99.90;;;;;;5092037;28;19960;-68
2022/05/20 01:37:45;;;;;;;;;;;12.10;99.90;;;;;;5091987;28;19924;-67
2022/05/20 01:40:11;;;;;;;;;;;12.00;99.90;;;;;;5091833;28;20029;-67
2022/05/20 01:42:36;;;;;;;;;;;12.10;99.90;;;;;;5091949;28;19920;-67
2022/05/20 01:45:06;;;;;;;;;;;12.00;99.90;;;;;;5095606;28;19978;-67
2022/05/20 01:47:40;;;;;;;;;;;12.00;99.90;;;;;;5096068;28;20418;-67
2022/05/20 01:50:12;;;;;;;;;;;12.00;99.90;;;;;;5095654;28;20259;-67
2022/05/20 01:52:42;;;;;;;;;;;12.10;99.90;;;;;;5095697;28;19969;-67
2022/05/20 01:55:14;;;;;;;;;;;12.20;99.90;;;;;;5095935;28;19920;-67
2022/05/20 01:57:39;;;;;;;;;;;12.10;99.90;;;;;;5095509;28;20006;-67
2022/05/20 02:00:10;;;;;;;;;;;12.20;99.90;;;;;;5095419;28;20361;-67
2022/05/20 02:02:59;;;;;;;;;;;12.10;99.90;;;;;;5095814;28;19920;-67
2022/05/20 02:05:36;;;;;;;;;;;12.10;99.90;;;;;;5087471;28;20343;-67
2022/05/20 02:08:04;;;;;;;;;;;12.20;99.90;;;;;;5095484;28;19920;-67
2022/05/20 02:10:34;;;;;;;;;;;12.10;99.90;;;;;;5095082;28;20367;-67
2022/05/20 02:13:08;;;;;;;;;;;12.10;99.90;;;;;;5094927;28;19977;-67
2022/05/20 02:15:37;;;;;;;;;;;12.20;99.90;;;;;;5078046;28;19998;-67
2022/05/20 02:18:05;;;;;;;;;;;12.30;99.90;;;;;;5095151;28;19924;-67
2022/05/20 02:20:36;;;;;;;;;;;12.20;99.90;;;;;;5129212;27;20011;-67
2022/05/20 02:23:04;;;;;;;;;;;12.20;99.90;;;;;;5094875;28;20291;-67
2022/05/20 02:25:31;;;;;;;;;;;12.20;99.90;;;;;;5094942;28;19927;-67
2022/05/20 02:28:00;;;;;;;;;;;12.20;99.90;;;;;;5095224;28;19962;-67
2022/05/20 02:30:28;;;;;;;;;;;12.30;99.90;;;;;;5094813;28;19920;-67
2022/05/20 02:32:59;;;;;;;;;;;12.20;99.90;;;;;;5083941;28;19955;-67
2022/05/20 02:35:24;;;;;;;;;;;12.20;99.90;;;;;;5108323;28;19926;-67
2022/05/20 02:37:50;;;;;;;;;;;12.20;99.90;;;;;;5108386;28;20014;-67
2022/05/20 02:40:17;;;;;;;;;;;12.10;99.90;;;;;;5108207;28;20009;-67
2022/05/20 02:42:42;;;;;;;;;;;12.10;99.90;;;;;;5108141;28;20283;-67
2022/05/20 02:45:09;;;;;;;;;;;12.10;99.90;;;;;;5108024;28;19928;-67
2022/05/20 02:47:35;;;;;;;;;;;12.00;99.90;;;;;;5109729;28;19927;-67
2022/05/20 02:50:01;;;;;;;;;;;12.10;99.90;;;;;;5114743;28;19919;-67
2022/05/20 02:52:27;;;;;;;;;;;12.00;99.90;;;;;;5098383;28;19920;-67
2022/05/20 02:54:52;;;;;;;;;;;12.00;99.90;;;;;;5076872;28;19920;-67
2022/05/20 02:57:18;;;;;;;;;;;12.00;99.90;;;;;;5094214;28;19920;-67
2022/05/20 03:05:12;;;;;;;;;;;12.00;99.90;;;;;;5094264;28;19927;-67
2022/05/20 03:07:37;;;;;;;;;;;12.00;99.90;;;;;;5089209;28;20015;-67
2022/05/20 03:10:03;;;;;;;;;;;11.90;99.90;;;;;;5108060;28;20417;-67
2022/05/20 03:12:28;;;;;;;;;;;11.80;99.90;;;;;;5107524;28;20333;-67
2022/05/20 03:14:54;;;;;;;;;;;11.90;99.90;;;;;;5107747;28;19921;-67
2022/05/20 03:17:19;;;;;;;;;;;11.90;99.90;;;;;;5107332;28;19963;-67
2022/05/20 03:19:45;;;;;;;;;;;11.80;99.90;;;;;;5107231;28;19981;-67
2022/05/20 03:22:10;;;;;;;;;;;11.90;99.90;;;;;;5090608;28;19959;-67
2022/05/20 03:24:37;;;;;;;;;;;11.60;99.90;;;;;;5107472;28;19920;-67
2022/05/20 03:27:03;;;;;;;;;;;11.60;99.90;;;;;;5107539;28;19928;-67
2022/05/20 03:29:29;;;;;;;;;;;11.40;99.90;;;;;;5107082;28;19920;-67
2022/05/20 03:31:55;;;;;;;;;;;11.40;99.90;;;;;;5107083;28;19924;-67
2022/05/20 03:34:21;;;;;;;;;;;11.40;99.90;;;;;;5107385;28;19921;-67
2022/05/20 03:36:48;;;;;;;;;;;11.30;99.90;;;;;;5107131;28;19970;-67
2022/05/20 03:39:15;;;;;;;;;;;11.20;99.90;;;;;;5107147;28;19925;-67
2022/05/20 03:41:41;;;;;;;;;;;11.20;99.90;;;;;;5107062;28;20257;-67
2022/05/20 03:44:08;;;;;;;;;;;11.00;99.90;;;;;;5107170;28;19926;-67
2022/05/20 03:46:38;;;;;;;;;;;11.10;99.90;;;;;;5122115;27;19920;-67
2022/05/20 03:49:04;;;;;;;;;;;10.90;99.90;;;;;;5113603;28;19920;-67
2022/05/20 03:51:30;;;;;;;;;;;11.00;99.90;;;;;;5114008;28;19945;-67
2022/05/20 03:53:55;;;;;;;;;;;11.00;99.90;;;;;;5113507;28;19924;-67
2022/05/20 03:56:20;;;;;;;;;;;10.90;99.90;;;;;;5113667;28;19927;-67
2022/05/20 03:58:46;;;;;;;;;;;10.80;99.90;;;;;;5113570;28;19924;-67
2022/05/20 04:03:56;;;;;;;;;;;10.70;99.90;;;;;;5113173;28;20301;-67
2022/05/20 04:06:22;;;;;;;;;;;10.70;99.90;;;;;;5106616;28;19920;-67
2022/05/20 04:08:47;;;;;;;;;;;10.50;99.90;;;;;;5092882;28;19965;-67
2022/05/20 04:11:13;;;;;;;;;;;10.40;99.90;;;;;;5092854;28;19943;-67
2022/05/20 04:13:39;;;;;;;;;;;10.60;99.90;;;;;;5096877;28;19920;-67
2022/05/20 04:16:05;;;;;;;;;;;10.50;99.90;;;;;;5111755;28;19926;-68
2022/05/20 04:18:31;;;;;;;;;;;10.50;99.90;;;;;;5112606;28;19947;-67
2022/05/20 04:20:58;;;;;;;;;;;10.50;99.90;;;;;;5094900;28;19920;-67
2022/05/20 04:23:24;;;;;;;;;;;10.30;99.90;;;;;;5075328;28;19970;-67
2022/05/20 04:25:49;;;;;;;;;;;10.20;99.90;;;;;;5097217;28;19919;-67
2022/05/20 04:28:15;;;;;;;;;;;10.20;99.90;;;;;;5091770;28;19927;-67
2022/05/20 04:30:40;;;;;;;;;;;10.20;99.90;;;;;;5091700;28;20291;-67
2022/05/20 04:33:06;;;;;;;;;;;10.20;99.90;;;;;;5089539;28;19920;-67
2022/05/20 04:35:32;;;;;;;;;;;10.20;99.90;;;;;;5089195;28;19927;-67
2022/05/20 04:37:57;;;;;;;;;;;10.50;99.90;;;;;;5089653;28;19920;-67
2022/05/20 04:40:23;;;;;;;;;;;10.40;99.90;;;;;;5090535;28;19970;-67
2022/05/20 04:48:17;;;;;;;;;;;10.90;99.90;;;;;;5084790;28;19926;-67
2022/05/20 04:50:46;;;;;;;;;;;10.90;99.90;;;;;;5074512;28;20015;-67
2022/05/20 04:54:49;;;;;;;;;;;10.90;99.90;;;;;;5091234;28;19925;-67
2022/05/20 04:56:01;;;;;;;;;;;11.10;99.90;;;;;;5096605;28;19921;-67
2022/05/20 04:58:27;;;;;;;;;;;11.10;99.90;;;;;;5091036;28;20409;-67
2022/05/20 05:00:54;;;;;;;;;;;11.20;99.90;;;;;;5091698;28;19920;-67
2022/05/20 05:03:20;;;;;;;;;;;11.30;99.90;;;;;;5091469;28;19927;-68
2022/05/20 05:05:45;;;;;;;;;;;11.20;99.90;;;;;;5091354;28;20286;-68
2022/05/20 05:08:10;;;;;;;;;;;11.40;99.90;;;;;;5091189;28;19920;-68
2022/05/20 05:10:37;;;;;;;;;;;11.40;99.90;;;;;;5084559;28;19920;-68
2022/05/20 05:13:03;;;;;;;;;;;11.50;99.90;;;;;;5098434;28;19927;-68
2022/05/20 05:15:28;;;;;;;;;;;11.60;99.90;;;;;;5106512;28;20281;-68
2022/05/20 05:18:12;;;;;;;;;;;11.70;99.90;;;;;;5091229;28;19977;-68
2022/05/20 05:20:41;;;;;;;;;;;11.70;99.90;;;;;;5094296;28;20438;-68
2022/05/20 05:23:06;;;;;;;;;;;11.90;99.90;;;;;;5096257;28;19920;-68
2022/05/20 05:25:33;;;;;;;;;;;11.90;99.90;;;;;;5116837;27;19943;-68
2022/05/20 05:27:58;;;;;;;;;;;12.00;99.90;;;;;;5097527;28;20005;-67
2022/05/20 05:30:24;;;;;;;;;;;12.10;99.90;;;;;;5092547;28;20039;-67
2022/05/20 05:32:50;;;;;;;;;;;12.30;99.90;;;;;;5093372;28;20392;-67
2022/05/20 05:35:17;;;;;;;;;;;12.30;99.90;;;;;;5113667;27;20378;-67
2022/05/20 05:37:43;;;;;;;;;;;12.50;99.90;;;;;;5067522;28;19955;-67
2022/05/20 05:40:10;;;;;;;;;;;12.50;99.90;;;;;;5086079;28;20345;-67
2022/05/20 05:42:41;;;;;;;;;;;12.80;99.90;;;;;;5101495;28;19931;-68
2022/05/20 05:45:07;;;;;;;;;;;13.00;99.90;;;;;;5129626;27;20362;-68
2022/05/20 05:47:32;;;;;;;;;;;13.10;99.90;;;;;;5078677;28;20005;-67
2022/05/20 05:50:17;;;;;;;;;;;13.30;99.90;;;;;;5095292;28;19920;-68
2022/05/20 05:52:43;;;;;;;;;;;13.40;99.90;;;;;;5094816;28;19920;-68
2022/05/20 05:55:09;;;;;;;;;;;13.70;99.90;;;;;;5094724;28;20286;-68
2022/05/20 05:57:46;;;;;;;;;;;13.80;99.90;;;;;;5103737;28;20392;-68
2022/05/20 06:03:35;;;;;;;;;;;14.00;99.90;;;;;;5105451;28;20476;-67
2022/05/20 06:06:00;;;;;;;;;;;14.10;99.90;;;;;;5108448;28;20290;-68
2022/05/20 06:08:26;;;;;;;;;;;14.20;99.90;;;;;;5095601;28;19920;-68
2022/05/20 06:10:52;;;;;;;;;;;14.10;99.90;;;;;;5129532;27;20279;-68
2022/05/20 06:13:22;;;;;;;;;;;14.00;99.90;;;;;;5095338;28;20290;-68
2022/05/20 06:15:48;;;;;;;;;;;14.00;99.90;;;;;;5095204;28;19978;-67
2022/05/20 06:18:13;;;;;;;;;;;14.00;99.90;;;;;;5129435;27;19968;-67
2022/05/20 06:20:39;;;;;;;;;;;14.20;99.90;;;;;;5095171;28;20289;-67
2022/05/20 06:23:05;;;;;;;;;;;14.20;99.90;;;;;;5111042;27;19920;-68
2022/05/20 06:25:30;;;;;;;;;;;14.40;99.90;;;;;;5086512;28;19927;-67
2022/05/20 06:28:06;;;;;;;;;;;14.40;99.90;;;;;;5094631;28;19920;-68
2022/05/20 06:30:32;;;;;;;;;;;14.50;99.90;;;;;;5093847;28;19916;-68
2022/05/20 06:33:15;;;;;;;;;;;14.60;99.90;;;;;;5108193;28;20416;-67
2022/05/20 06:41:09;;;;;;;;;;;14.90;99.90;;;;;;5082826;28;19966;-68
2022/05/20 06:43:35;;;;;;;;;;;15.10;99.90;;;;;;5087379;28;19923;-68
2022/05/20 06:46:02;;;;;;;;;;;15.30;99.90;;;;;;5111557;27;19926;-68
2022/05/20 06:48:44;;;;;;;;;;;15.30;99.90;;;;;;5097353;28;19916;-68
2022/05/20 06:51:10;;;;;;;;;;;15.40;99.90;;;;;;5086811;28;19927;-67
2022/05/20 06:53:36;;;;;;;;;;;15.40;99.90;;;;;;5091368;28;19927;-69
2022/05/20 06:56:02;;;;;;;;;;;15.50;99.90;;;;;;5097590;28;19924;-68
2022/05/20 06:58:27;;;;;;;;;;;15.50;99.90;;;;;;5093517;28;20297;-68
2022/05/20 07:00:53;;;;;;;;;;;15.40;99.90;;;;;;5075032;28;20264;-68
2022/05/20 07:03:20;;;;;;;;;;;15.40;99.90;;;;;;5092524;28;19965;-69
2022/05/20 07:05:46;;;;;;;;;;;15.50;99.90;;;;;;5087155;28;19924;-69
2022/05/20 07:08:11;;;;;;;;;;;15.70;99.90;;;;;;5121776;27;20374;-68
2022/05/20 07:10:37;;;;;;;;;;;15.90;99.90;;;;;;5099858;28;20389;-69
2022/05/20 07:13:02;;;;;;;;;;;16.10;99.90;;;;;;5099936;28;20355;-70
2022/05/20 07:15:28;;;;;;;;;;;16.00;99.90;;;;;;5095447;28;19981;-70
2022/05/20 07:17:53;;;;;;;;;;;16.00;99.90;;;;;;5098584;28;19920;-69
2022/05/20 07:20:18;;;;;;;;;;;16.10;99.90;;;;;;5096727;28;19924;-69
2022/05/20 07:22:44;;;;;;;;;;;16.10;99.90;;;;;;5107968;28;19920;-70
2022/05/20 07:25:11;;;;;;;;;;;16.00;99.90;;;;;;5099462;28;19959;-69
2022/05/20 07:27:36;;;;;;;;;;;16.00;99.90;;;;;;5094264;28;19927;-70
2022/05/20 07:30:02;;;;;;;;;;;16.20;99.90;;;;;;5093154;28;19932;-71
2022/05/20 07:32:27;;;;;;;;;;;16.20;99.90;;;;;;5099887;28;20049;-69
2022/05/20 07:34:53;;;;;;;;;;;16.20;99.90;;;;;;5087627;28;19955;-69
2022/05/20 07:37:18;;;;;;;;;;;16.30;99.90;;;;;;5092229;28;20394;-70
2022/05/20 07:39:44;;;;;;;;;;;16.40;99.90;;;;;;5103521;28;19931;-69
2022/05/20 07:42:10;;;;;;;;;;;16.50;99.90;;;;;;5099908;28;19998;-69
2022/05/20 07:44:36;;;;;;;;;;;16.70;99.90;;;;;;5099285;28;19932;-70
2022/05/20 07:47:02;;;;;;;;;;;16.80;99.90;;;;;;5106839;28;19930;-70
2022/05/20 07:49:28;;;;;;;;;;;16.90;99.90;;;;;;5096061;28;19928;-70
2022/05/20 07:51:55;;;;;;;;;;;16.80;99.90;;;;;;5093943;28;19942;-71
2022/05/20 07:54:23;;;;;;;;;;;16.80;99.90;;;;;;5100267;28;19923;-71
2022/05/20 07:57:01;;;;;;;;;;;16.80;99.90;;;;;;5109706;28;19919;-70
2022/05/20 07:59:30;;;;;;;;;;;17.00;99.90;;;;;;5096955;28;19973;-69
2022/05/20 08:01:56;;;;;;;;;;;17.10;99.90;;;;;;5095924;28;19970;-70
2022/05/20 08:07:09;;;;;;;;;;;17.40;99.90;;;;;;5082292;28;19950;-71
2022/05/20 08:09:34;;;;;;;;;;;17.40;99.90;;;;;;5070918;28;19920;-70
2022/05/20 08:12:00;;;;;;;;;;;17.30;99.90;;;;;;5085382;28;19930;-71
2022/05/20 08:14:26;;;;;;;;;;;17.20;99.90;;;;;;5083715;28;19924;-71
2022/05/20 08:16:52;;;;;;;;;;;17.10;99.90;;;;;;5086397;28;20390;-70
2022/05/20 08:19:18;;;;;;;;;;;17.10;99.90;;;;;;5090206;28;19924;-70
2022/05/20 08:21:43;;;;;;;;;;;17.00;99.90;;;;;;5089059;28;19928;-70
2022/05/20 08:24:09;;;;;;;;;;;17.00;99.90;;;;;;5097489;28;20008;-72
2022/05/20 08:26:34;;;;;;;;;;;16.90;99.90;;;;;;5083487;28;20011;-71
2022/05/20 08:29:00;;;;;;;;;;;16.90;99.90;;;;;;5091508;28;19934;-70
2022/05/20 08:31:25;;;;;;;;;;;16.80;99.90;;;;;;5101342;28;19935;-70
2022/05/20 08:33:51;;;;;;;;;;;16.90;99.90;;;;;;5098171;28;19928;-71
2022/05/20 08:36:17;;;;;;;;;;;17.20;99.90;;;;;;5092578;28;19954;-72
2022/05/20 08:38:43;;;;;;;;;;;17.40;99.90;;;;;;5102518;28;19924;-71
2022/05/20 08:41:11;;;;;;;;;;;17.70;99.90;;;;;;5104086;28;20073;-73
2022/05/20 08:43:37;;;;;;;;;;;17.80;99.90;;;;;;5076112;28;19924;-72
2022/05/20 08:46:06;;;;;;;;;;;18.00;99.90;;;;;;5119511;27;20036;-73
2022/05/20 08:48:31;;;;;;;;;;;17.90;99.90;;;;;;5074197;28;19921;-72
2022/05/20 08:50:58;;;;;;;;;;;18.00;99.90;;;;;;5102362;28;19927;-72
2022/05/20 08:53:23;;;;;;;;;;;18.00;99.90;;;;;;5103947;28;19928;-72
2022/05/20 08:55:49;;;;;;;;;;;18.00;99.90;;;;;;5089469;28;19924;-70
2022/05/20 08:58:17;;;;;;;;;;;18.10;99.90;;;;;;5089807;28;19920;-71
2022/05/20 09:00:43;;;;;;;;;;;18.20;99.90;;;;;;5088504;28;20378;-71
2022/05/20 09:03:09;;;;;;;;;;;18.30;99.90;;;;;;5088692;28;20011;-71
2022/05/20 09:05:36;;;;;;;;;;;18.30;99.90;;;;;;5088225;28;20027;-71
2022/05/20 09:08:03;;;;;;;;;;;18.40;99.90;;;;;;5084833;28;20117;-71
2022/05/20 09:10:34;;;;;;;;;;;18.50;99.90;;;;;;5087235;28;19920;-71
2022/05/20 09:13:07;;;;;;;;;;;18.50;99.90;;;;;;5069441;28;19920;-71
2022/05/20 09:15:46;;;;;;;;;;;18.50;99.90;;;;;;5088248;28;20115;-71
2022/05/20 09:18:22;;;;;;;;;;;18.60;99.90;;;;;;5084288;28;19924;-71
2022/05/20 09:20:49;;;;;;;;;;;18.60;99.90;;;;;;5084065;28;19928;-71
2022/05/20 09:23:15;;;;;;;;;;;18.70;99.90;;;;;;5087479;28;19993;-71
2022/05/20 09:25:46;;;;;;;;;;;18.80;99.90;;;;;;5080425;28;20279;-71
2022/05/20 09:28:14;;;;;;;;;;;18.80;99.90;;;;;;5082700;28;19971;-71
2022/05/20 09:30:41;;;;;;;;;;;19.00;99.90;;;;;;5085564;28;20023;-72
2022/05/20 09:33:15;;;;;;;;;;;18.80;99.90;;;;;;5106358;28;19927;-72
2022/05/20 09:35:45;;;;;;;;;;;18.80;99.90;;;;;;5088309;28;19924;-71
2022/05/20 09:38:26;;;;;;;;;;;18.80;99.90;;;;;;5087932;28;20015;-71
2022/05/20 09:40:52;;;;;;;;;;;18.60;99.90;;;;;;5086925;28;19926;-71
2022/05/20 09:43:28;;;;;;;;;;;18.70;99.90;;;;;;5089090;28;19920;-71
2022/05/20 09:45:54;;;;;;;;;;;18.70;99.90;;;;;;5086507;28;19921;-71
2022/05/20 09:48:49;;;;;;;;;;;18.70;99.90;;;;;;5089037;28;19943;-71
2022/05/20 09:51:19;;;;;;;;;;;18.70;99.90;;;;;;5082990;28;19970;-71
2022/05/20 09:54:00;;;;;;;;;;;18.70;99.90;;;;;;5089061;28;20018;-71
2022/05/20 09:56:29;;;;;;;;;;;18.60;99.90;;;;;;5085231;28;20007;-71
2022/05/20 09:59:11;;;;;;;;;;;18.60;99.90;;;;;;5102127;28;19936;-71
2022/05/20 10:01:37;;;;;;;;;;;18.60;99.90;;;;;;5068838;28;20015;-71
2022/05/20 10:04:06;;;;;;;;;;;18.70;99.90;;;;;;5069094;28;19921;-71
2022/05/20 10:06:34;;;;;;;;;;;18.70;99.90;;;;;;5105710;27;19920;-71
2022/05/20 10:09:15;;;;;;;;;;;18.80;99.90;;;;;;5105888;28;19920;-71
2022/05/20 10:11:59;;;;;;;;;;;18.90;99.90;;;;;;5106270;28;19921;-71
2022/05/20 10:14:27;;;;;;;;;;;18.90;99.90;;;;;;5083154;28;20022;-71
2022/05/20 10:16:53;;;;;;;;;;;19.00;99.90;;;;;;5092118;28;20035;-71
2022/05/20 10:19:22;;;;;;;;;;;19.10;99.90;;;;;;5085116;28;20390;-71
2022/05/20 10:21:52;;;;;;;;;;;19.30;99.90;;;;;;5120646;27;19920;-71
2022/05/20 10:24:38;;;;;;;;;;;19.30;99.90;;;;;;5092195;28;19924;-71
2022/05/20 10:27:12;;;;;;;;;;;19.40;99.90;;;;;;5089410;28;19931;-70
2022/05/20 10:32:49;;;;;;;;;;;19.50;99.90;;;;;;5087580;28;20034;-70
2022/05/20 10:35:17;;;;;;;;;;;19.70;99.90;;;;;;5102795;28;19924;-71
2022/05/20 10:37:47;;;;;;;;;;;19.80;99.90;;;;;;5101502;28;19931;-70
2022/05/20 10:40:27;;;;;;;;;;;19.90;99.90;;;;;;5090839;28;20019;-71
2022/05/20 10:42:56;;;;;;;;;;;19.90;99.90;;;;;;5091307;28;19947;-70
2022/05/20 10:51:13;;;;;;;;;;;20.10;99.90;;;;;;5104114;27;19927;-71
2022/05/20 10:53:51;;;;;;;;;;;20.20;99.90;;;;;;5114522;27;19926;-71
2022/05/20 10:56:20;;;;;;;;;;;20.20;99.90;;;;;;5091013;28;20005;-71
2022/05/20 10:58:51;;;;;;;;;;;20.40;99.90;;;;;;5089852;28;20298;-70
2022/05/20 11:01:25;;;;;;;;;;;20.40;99.90;;;;;;5079320;28;19920;-70
2022/05/20 11:04:10;;;;;;;;;;;20.40;99.90;;;;;;5104522;28;19920;-70
2022/05/20 11:06:35;;;;;;;;;;;20.40;99.90;;;;;;5119829;27;19931;-70
2022/05/20 11:09:01;;;;;;;;;;;20.60;99.90;;;;;;5072848;28;20014;-71
2022/05/20 11:11:45;;;;;;;;;;;20.60;99.90;;;;;;5091221;28;19932;-71
2022/05/20 11:14:29;;;;;;;;;;;20.70;99.90;;;;;;5091194;28;19924;-71
2022/05/20 11:17:01;;;;;;;;;;;20.80;99.90;;;;;;5082233;28;20148;-71
2022/05/20 11:19:26;;;;;;;;;;;20.90;99.90;;;;;;5089527;28;20581;-71
2022/05/20 11:22:02;;;;;;;;;;;21.00;99.90;;;;;;5090574;28;19924;-71
2022/05/20 11:24:30;;;;;;;;;;;21.00;99.90;;;;;;5089667;28;19921;-70
2022/05/20 11:27:08;;;;;;;;;;;21.00;99.90;;;;;;5090361;28;19931;-70
2022/05/20 11:29:37;;;;;;;;;;;21.20;99.90;;;;;;5088149;28;19924;-69
2022/05/20 11:32:05;;;;;;;;;;;21.30;99.90;;;;;;5090252;28;20260;-70
2022/05/20 11:34:38;;;;;;;;;;;21.20;99.90;;;;;;5090636;28;20432;-70
2022/05/20 11:37:03;;;;;;;;;;;21.20;99.90;;;;;;5090059;28;19934;-70
2022/05/20 11:39:48;;;;;;;;;;;21.10;99.90;;;;;;5089622;28;19924;-69
2022/05/20 11:42:19;;;;;;;;;;;21.00;99.90;;;;;;5089945;28;19963;-69
2022/05/20 11:44:46;;;;;;;;;;;21.00;99.90;;;;;;5079605;28;19926;-69
2022/05/20 11:47:21;;;;;;;;;;;20.90;99.90;;;;;;5087233;28;19924;-69
2022/05/20 11:49:54;;;;;;;;;;;20.80;99.90;;;;;;5086364;28;19920;-69
2022/05/20 11:52:42;;;;;;;;;;;20.70;99.90;;;;;;5083046;28;19974;-69
2022/05/20 11:55:29;;;;;;;;;;;20.70;99.90;;;;;;5103170;28;19943;-70
2022/05/20 11:58:00;;;;;;;;;;;20.70;99.90;;;;;;5089479;28;19931;-70
2022/05/20 12:00:26;;;;;;;;;;;20.70;99.90;;;;;;5097487;28;20372;-70
2022/05/20 12:03:21;;;;;;;;;;;20.60;99.90;;;;;;5098648;28;19923;-70
2022/05/20 12:05:47;;;;;;;;;;;20.60;99.90;;;;;;5065124;28;19924;-69
2022/05/20 12:08:31;;;;;;;;;;;20.60;99.90;;;;;;5105595;27;19943;-70
2022/05/20 12:10:57;;;;;;;;;;;20.50;99.90;;;;;;5087421;28;19921;-70
2022/05/20 12:13:24;;;;;;;;;;;20.60;99.90;;;;;;5088279;28;20033;-70
2022/05/20 12:16:09;;;;;;;;;;;20.60;99.90;;;;;;5089217;28;20402;-69
2022/05/20 12:24:13;;;;;;;;;;;20.60;99.90;;;;;;5103578;28;20404;-71
2022/05/20 12:26:42;;;;;;;;;;;20.60;99.90;;;;;;5115143;27;20316;-70
2022/05/20 12:29:27;;;;;;;;;;;20.60;99.90;;;;;;5088836;28;20015;-71
2022/05/20 12:31:52;;;;;;;;;;;20.60;99.90;;;;;;5089966;28;19928;-73
2022/05/20 12:34:38;;;;;;;;;;;20.60;99.90;;;;;;5086925;28;19931;-73
2022/05/20 12:37:04;;;;;;;;;;;20.60;99.90;;;;;;5106948;27;19924;-73
2022/05/20 12:39:49;;;;;;;;;;;20.50;99.90;;;;;;5102542;28;19946;-73
2022/05/20 12:42:26;;;;;;;;;;;20.50;99.90;;;;;;5071300;28;19920;-72
2022/05/20 12:44:52;;;;;;;;;;;20.40;99.90;;;;;;5069454;28;20371;-72
2022/05/20 12:47:24;;;;;;;;;;;20.30;99.90;;;;;;5070137;28;20359;-72
2022/05/20 12:49:49;;;;;;;;;;;20.30;99.90;;;;;;5068657;28;19964;-71
2022/05/20 12:52:15;;;;;;;;;;;20.20;99.90;;;;;;5085770;28;19956;-71
2022/05/20 12:54:44;;;;;;;;;;;20.10;99.90;;;;;;5069816;28;20034;-71
2022/05/20 12:57:11;;;;;;;;;;;20.00;99.90;;;;;;5069587;28;20421;-71
2022/05/20 12:59:36;;;;;;;;;;;19.80;99.90;;;;;;5069049;28;19928;-71
2022/05/20 13:02:06;;;;;;;;;;;19.70;99.90;;;;;;5069463;28;20426;-71
2022/05/20 13:04:36;;;;;;;;;;;19.70;99.90;;;;;;5069581;28;20343;-72
2022/05/20 13:07:02;;;;;;;;;;;19.50;99.90;;;;;;5069481;28;19921;-71
2022/05/20 13:09:35;;;;;;;;;;;19.40;99.90;;;;;;5077925;28;19962;-72
2022/05/20 13:12:07;;;;;;;;;;;19.30;99.90;;;;;;5089447;28;19955;-71
2022/05/20 13:14:34;;;;;;;;;;;19.10;99.90;;;;;;5089586;28;19986;-71
2022/05/20 13:17:02;;;;;;;;;;;19.00;99.90;;;;;;5088564;28;19920;-70
2022/05/20 13:19:41;;;;;;;;;;;18.80;99.90;;;;;;5088864;28;19951;-71
2022/05/20 13:22:07;;;;;;;;;;;18.70;99.90;;;;;;5087208;28;19920;-71
2022/05/20 13:24:35;;;;;;;;;;;18.70;99.90;;;;;;5103189;28;19928;-71
2022/05/20 13:27:03;;;;;;;;;;;18.60;99.90;;;;;;5083617;28;20014;-71
2022/05/20 13:29:29;;;;;;;;;;;18.50;99.90;;;;;;5088898;28;20397;-72
2022/05/20 13:32:13;;;;;;;;;;;18.40;99.90;;;;;;5087510;28;19920;-73
2022/05/20 13:34:43;;;;;;;;;;;18.30;99.90;;;;;;5089551;28;20441;-73
2022/05/20 13:37:10;;;;;;;;;;;18.20;99.90;;;;;;5071219;28;20333;-73
2022/05/20 13:39:36;;;;;;;;;;;18.00;99.90;;;;;;5088574;28;19929;-73
2022/05/20 13:42:01;;;;;;;;;;;17.80;99.90;;;;;;5106633;28;19921;-73
2022/05/20 13:44:27;;;;;;;;;;;17.70;99.90;;;;;;5106800;28;19946;-71
2022/05/20 13:49:37;;;;;;;;;;;17.30;99.90;;;;;;5072194;28;19978;-68
2022/05/20 13:52:04;;;;;;;;;;;17.20;99.90;;;;;;5106328;27;19921;-69
2022/05/20 13:54:38;;;;;;;;;;;17.00;99.90;;;;;;5072740;28;19925;-70
2022/05/20 13:57:05;;;;;;;;;;;16.80;99.90;;;;;;5073956;28;20336;-71
2022/05/20 13:59:30;;;;;;;;;;;16.60;99.90;;;;;;5091477;28;19924;-70
2022/05/20 14:02:08;;;;;;;;;;;16.50;99.90;;;;;;5092308;28;19924;-69
2022/05/20 14:04:48;;;;;;;;;;;16.40;99.90;;;;;;5077083;28;20272;-70
2022/05/20 14:07:29;;;;;;;;;;;16.20;99.90;;;;;;5079382;28;19975;-72
2022/05/20 14:09:57;;;;;;;;;;;16.10;99.90;;;;;;5119626;27;20287;-72
2022/05/20 14:12:26;;;;;;;;;;;16.00;99.90;;;;;;5070837;28;19928;-72
2022/05/20 14:14:57;;;;;;;;;;;15.90;99.90;;;;;;5074125;28;19924;-72
2022/05/20 14:17:22;;;;;;;;;;;15.80;99.90;;;;;;5089127;28;20011;-72
2022/05/20 14:19:49;;;;;;;;;;;15.70;99.90;;;;;;5071509;28;20036;-71
2022/05/20 14:22:25;;;;;;;;;;;15.60;99.90;;;;;;5107295;28;19920;-69
2022/05/20 14:24:58;;;;;;;;;;;15.50;99.90;;;;;;5073159;28;19974;-70
2022/05/20 14:27:28;;;;;;;;;;;15.50;99.90;;;;;;5126629;27;19928;-68
2022/05/20 14:29:54;;;;;;;;;;;15.40;99.90;;;;;;5094792;28;20348;-69
2022/05/20 14:32:20;;;;;;;;;;;15.20;99.90;;;;;;5078088;28;19966;-68
2022/05/20 14:34:49;;;;;;;;;;;15.20;99.90;;;;;;5092086;28;19924;-70
2022/05/20 14:37:17;;;;;;;;;;;15.20;99.90;;;;;;5092232;28;19947;-69
2022/05/20 14:39:48;;;;;;;;;;;15.00;99.90;;;;;;5091669;28;19924;-68
2022/05/20 14:42:28;;;;;;;;;;;15.00;99.90;;;;;;5092128;28;19920;-68
2022/05/20 14:44:56;;;;;;;;;;;14.80;99.90;;;;;;5083953;28;19964;-65
2022/05/20 14:47:26;;;;;;;;;;;14.90;99.90;;;;;;5107121;28;19928;-69
2022/05/20 14:49:53;;;;;;;;;;;14.80;99.90;;;;;;5105284;28;19926;-68
2022/05/20 14:52:43;;;;;;;;;;;14.70;99.90;;;;;;5092703;28;19921;-70
2022/05/20 14:55:12;;;;;;;;;;;14.60;99.90;;;;;;5097474;28;19920;-69
2022/05/20 14:57:38;;;;;;;;;;;14.50;99.90;;;;;;5112943;28;19926;-71
2022/05/20 15:00:10;;;;;;;;;;;14.40;99.90;;;;;;5085743;28;20437;-73
2022/05/20 15:02:35;;;;;;;;;;;14.30;99.90;;;;;;5090766;28;20348;-71
2022/05/20 15:05:01;;;;;;;;;;;13.90;99.90;;;;;;5091970;28;19924;-72
2022/05/20 15:07:27;;;;;;;;;;;14.10;99.90;;;;;;5092088;28;20033;-72
2022/05/20 15:09:54;;;;;;;;;;;14.00;99.90;;;;;;5091007;28;20278;-75